createdAt,value
2022-12-08T00:00:22.259Z,11.77
2022-12-08T00:04:58.381Z,11.65
2022-12-08T00:09:24.962Z,10.40
2022-12-08T00:13:41.207Z,10.63
2022-12-08T00:17:57.367Z,11.18
2022-12-08T00:22:14.914Z,10.55
2022-12-08T00:26:31.045Z,11.10
2022-12-08T00:30:47.300Z,10.70
2022-12-08T00:35:03.747Z,10.63
2022-12-08T00:39:20.142Z,10.25
2022-12-08T00:43:36.278Z,10.93
2022-12-08T00:47:52.405Z,9.68
2022-12-08T00:52:08.559Z,10.13
2022-12-08T00:56:25.320Z,10.43
2022-12-08T01:00:42.867Z,10.25
2022-12-08T01:04:59.039Z,10.13
2022-12-08T01:09:16.141Z,11.07
2022-12-08T01:13:32.251Z,10.88
2022-12-08T01:17:48.335Z,10.75
2022-12-08T01:22:04.554Z,11.35
2022-12-08T01:26:20.901Z,10.75
2022-12-08T01:30:39.930Z,10.55
2022-12-08T01:34:56.054Z,11.85
2022-12-08T01:39:17.153Z,11.20
2022-12-08T01:43:55.168Z,10.32
2022-12-08T01:48:25.063Z,12.00
2022-12-08T01:52:49.511Z,10.98
2022-12-08T01:57:09.739Z,10.57
2022-12-08T02:01:26.057Z,12.43
2022-12-08T02:05:42.728Z,12.27
2022-12-08T02:09:58.914Z,13.05
2022-12-08T02:14:15.441Z,12.93
2022-12-08T02:18:43.859Z,11.80
2022-12-08T02:23:25.417Z,12.63
2022-12-08T02:28:06.103Z,11.70
2022-12-08T02:32:40.896Z,11.12
2022-12-08T02:37:19.725Z,11.57
2022-12-08T02:41:38.949Z,11.65
2022-12-08T02:46:02.709Z,11.52
2022-12-08T02:50:19.291Z,12.45
2022-12-08T02:54:36.652Z,12.20
2022-12-08T02:59:23.412Z,12.32
2022-12-08T03:03:52.168Z,10.57
2022-12-08T03:08:17.265Z,10.88
2022-12-08T03:12:48.446Z,11.80
2022-12-08T03:17:04.936Z,11.10
2022-12-08T03:21:22.020Z,10.60
2022-12-08T03:25:43.495Z,11.48
2022-12-08T03:30:00.626Z,10.80
2022-12-08T03:34:17.346Z,11.05
2022-12-08T03:38:45.007Z,11.48
2022-12-08T03:43:01.252Z,11.75
2022-12-08T03:47:17.458Z,11.63
2022-12-08T03:51:33.611Z,11.70
2022-12-08T03:55:49.701Z,11.38
2022-12-08T04:00:07.906Z,11.18
2022-12-08T04:04:24.108Z,11.12
2022-12-08T04:08:40.355Z,11.77
2022-12-08T04:12:57.769Z,10.77
2022-12-08T04:17:13.859Z,11.73
2022-12-08T04:21:29.976Z,13.02
2022-12-08T04:25:46.208Z,12.40
2022-12-08T04:30:02.972Z,12.57
2022-12-08T04:34:19.507Z,13.27
2022-12-08T04:38:35.878Z,12.55
2022-12-08T04:42:52.052Z,12.15
2022-12-08T04:47:08.222Z,13.90
2022-12-08T04:51:24.367Z,12.57
2022-12-08T04:55:43.988Z,14.27
2022-12-08T05:00:00.261Z,14.35
2022-12-08T05:04:16.474Z,13.98
2022-12-08T05:08:33.440Z,14.87
2022-12-08T05:12:49.715Z,14.32
2022-12-08T05:17:09.493Z,15.18
2022-12-08T05:21:26.097Z,13.88
2022-12-08T05:25:42.399Z,14.43
2022-12-08T05:29:58.674Z,14.95
2022-12-08T05:34:14.815Z,13.85
2022-12-08T05:38:31.046Z,14.43
2022-12-08T05:42:47.184Z,14.93
2022-12-08T05:47:03.347Z,13.90
2022-12-08T05:51:22.514Z,14.13
2022-12-08T05:55:38.662Z,14.00
2022-12-08T05:59:54.880Z,13.85
2022-12-08T06:04:11.217Z,14.57
2022-12-08T06:08:27.403Z,14.65
2022-12-08T06:12:43.667Z,14.38
2022-12-08T06:16:59.936Z,14.52
2022-12-08T06:21:16.971Z,12.77
2022-12-08T06:25:33.073Z,13.62
2022-12-08T06:29:49.228Z,13.62
2022-12-08T06:34:06.421Z,13.20
2022-12-08T06:38:22.477Z,13.70
2022-12-08T06:42:44.581Z,13.38
2022-12-08T06:47:00.769Z,14.73
2022-12-08T06:51:21.258Z,13.73
2022-12-08T06:56:06.411Z,13.52
2022-12-08T07:00:14.260Z,14.05
2022-12-08T07:04:30.437Z,13.82
2022-12-08T07:08:46.722Z,14.75
2022-12-08T07:13:03.027Z,13.70
2022-12-08T07:17:19.139Z,15.43
2022-12-08T07:21:35.308Z,16.00
2022-12-08T07:25:51.404Z,15.07
2022-12-08T07:30:08.312Z,17.15
2022-12-08T07:34:26.653Z,17.42
2022-12-08T07:38:43.065Z,17.12
2022-12-08T07:42:59.259Z,17.02
2022-12-08T07:47:15.500Z,16.58
2022-12-08T07:51:31.733Z,16.23
2022-12-08T07:55:47.917Z,16.50
2022-12-08T08:00:05.977Z,20.67
2022-12-08T08:04:22.390Z,21.83
2022-12-08T08:08:38.703Z,19.08
2022-12-08T08:12:57.061Z,18.95
2022-12-08T08:17:15.391Z,18.25
2022-12-08T08:21:46.958Z,18.83
2022-12-08T08:26:05.716Z,18.58
2022-12-08T08:30:21.823Z,18.05
2022-12-08T08:34:38.068Z,17.87
2022-12-08T08:38:59.146Z,16.83
2022-12-08T08:43:34.281Z,17.25
2022-12-08T08:47:52.424Z,19.48
2022-12-08T08:52:08.648Z,18.12
2022-12-08T08:56:25.105Z,20.45
2022-12-08T09:00:43.409Z,24.95
2022-12-08T09:04:59.955Z,18.98
2022-12-08T09:09:19.009Z,14.93
2022-12-08T09:13:35.848Z,18.25
2022-12-08T09:17:54.104Z,17.27
2022-12-08T09:22:14.492Z,16.45
2022-12-08T09:26:32.659Z,14.65
2022-12-08T09:30:48.853Z,14.05
2022-12-08T09:35:05.261Z,15.27
2022-12-08T09:39:21.424Z,14.32
2022-12-08T09:43:58.518Z,15.50
2022-12-08T09:48:21.022Z,15.27
2022-12-08T09:52:57.371Z,14.67
2022-12-08T09:57:17.264Z,15.82
2022-12-08T10:01:38.548Z,14.85
2022-12-08T10:06:33.773Z,14.00
2022-12-08T10:11:00.494Z,14.68
2022-12-08T10:15:43.671Z,13.90
2022-12-08T10:20:10.675Z,13.80
2022-12-08T10:24:39.847Z,13.43
2022-12-08T10:29:01.476Z,12.48
2022-12-08T10:33:21.482Z,12.45
2022-12-08T10:37:38.027Z,11.75
2022-12-08T10:41:54.326Z,12.70
2022-12-08T10:46:16.493Z,12.95
2022-12-08T10:50:42.106Z,13.18
2022-12-08T10:55:00.546Z,12.27
2022-12-08T10:59:22.016Z,13.88
2022-12-08T11:03:55.084Z,12.15
2022-12-08T11:08:11.818Z,14.10
2022-12-08T11:12:29.867Z,12.07
2022-12-08T11:16:50.210Z,13.15
2022-12-08T11:21:18.725Z,12.32
2022-12-08T11:25:34.876Z,12.90
2022-12-08T11:29:51.044Z,12.73
2022-12-08T11:34:14.264Z,13.23
2022-12-08T11:38:32.194Z,13.80
2022-12-08T11:43:02.312Z,12.85
2022-12-08T11:47:28.630Z,13.85
2022-12-08T11:51:52.087Z,13.73
2022-12-08T12:00:30.475Z,14.10
2022-12-08T12:05:47.426Z,12.90
2022-12-08T12:10:46.832Z,13.10
2022-12-08T12:15:14.738Z,13.62
2022-12-08T12:19:37.313Z,13.27
2022-12-08T12:24:36.364Z,12.10
2022-12-08T12:28:59.997Z,10.95
2022-12-08T12:37:39.416Z,12.40
2022-12-08T12:41:59.341Z,12.25
2022-12-08T12:46:24.583Z,13.00
2022-12-08T12:50:53.062Z,11.90
2022-12-08T12:55:12.094Z,11.55
2022-12-08T12:59:46.192Z,11.52
2022-12-08T13:04:13.038Z,11.85
2022-12-08T13:08:29.633Z,11.35
2022-12-08T13:12:56.376Z,11.27
2022-12-08T13:17:16.400Z,10.55
2022-12-08T13:21:42.021Z,10.85
2022-12-08T13:26:26.288Z,10.30
2022-12-08T13:30:44.284Z,10.20
2022-12-08T13:35:03.321Z,10.50
2022-12-08T13:39:34.844Z,10.10
2022-12-08T13:50:49.615Z,11.63
2022-12-08T13:58:27.885Z,10.70
2022-12-08T14:02:51.019Z,10.70
2022-12-08T14:07:09.890Z,10.13
2022-12-08T14:11:36.030Z,10.65
2022-12-08T14:15:52.394Z,11.23
2022-12-08T14:20:20.563Z,10.73
2022-12-08T14:24:36.744Z,12.55
2022-12-08T14:28:53.000Z,12.50
2022-12-08T14:33:17.223Z,11.55
2022-12-08T14:37:37.823Z,12.73
2022-12-08T14:42:00.972Z,10.63
2022-12-08T14:46:24.405Z,14.18
2022-12-08T14:55:02.404Z,12.40
2022-12-08T14:59:30.448Z,13.73
2022-12-08T15:03:51.180Z,13.65
2022-12-08T15:08:10.026Z,12.57
2022-12-08T15:12:29.848Z,13.73
2022-12-08T15:16:45.992Z,13.07
2022-12-08T15:21:05.564Z,13.07
2022-12-08T15:25:23.990Z,12.80
2022-12-08T15:29:40.160Z,11.98
2022-12-08T15:33:58.387Z,12.27
2022-12-08T15:38:29.090Z,12.60
2022-12-08T15:42:45.958Z,12.37
2022-12-08T15:47:04.614Z,12.30
2022-12-08T15:51:20.942Z,12.75
2022-12-08T15:55:39.199Z,13.10
2022-12-08T15:59:56.218Z,12.85
2022-12-08T16:05:00.175Z,14.73
2022-12-08T16:09:11.135Z,13.48
2022-12-08T16:13:57.092Z,12.45
2022-12-08T16:18:24.522Z,12.80
2022-12-08T16:28:00.320Z,13.60
2022-12-08T16:32:10.899Z,14.07
2022-12-08T16:36:27.148Z,14.87
2022-12-08T16:41:08.003Z,13.93
2022-12-08T16:45:29.366Z,13.48
2022-12-08T16:49:45.601Z,13.98
2022-12-08T16:54:03.878Z,13.32
2022-12-08T16:58:20.183Z,13.60
2022-12-08T17:02:36.531Z,14.32
2022-12-08T17:06:55.174Z,13.18
2022-12-08T17:11:21.227Z,12.57
2022-12-08T17:15:38.505Z,11.90
2022-12-08T17:19:55.118Z,11.12
2022-12-08T17:24:13.680Z,11.25
2022-12-08T17:28:58.878Z,11.75
2022-12-08T17:33:08.809Z,10.95
2022-12-08T17:37:25.342Z,10.73
2022-12-08T17:41:42.264Z,10.90
2022-12-08T17:45:59.102Z,11.68
2022-12-08T17:50:15.815Z,12.50
2022-12-08T17:54:32.257Z,13.02
2022-12-08T17:58:54.299Z,13.40
2022-12-08T18:03:11.093Z,12.27
2022-12-08T18:07:27.358Z,11.38
2022-12-08T18:11:44.176Z,12.27
2022-12-08T18:16:00.538Z,11.10
2022-12-08T18:20:17.472Z,12.00
2022-12-08T18:24:33.701Z,11.98
2022-12-08T18:28:50.145Z,12.23
2022-12-08T18:33:07.390Z,11.40
2022-12-08T18:37:23.576Z,14.55
2022-12-08T18:41:39.859Z,15.35
2022-12-08T18:46:05.883Z,15.90
2022-12-08T18:50:24.110Z,14.32
2022-12-08T18:55:05.389Z,15.13
2022-12-08T18:59:16.461Z,18.50
2022-12-08T19:03:32.697Z,16.70
2022-12-08T19:07:49.088Z,16.35
2022-12-08T19:12:05.910Z,16.33
2022-12-08T19:16:23.132Z,16.58
2022-12-08T19:20:39.365Z,15.90
2022-12-08T19:24:55.559Z,16.58
2022-12-08T19:29:12.033Z,16.60
2022-12-08T19:33:28.159Z,15.82
2022-12-08T19:37:44.267Z,15.77
2022-12-08T19:42:19.348Z,16.20
2022-12-08T19:46:40.139Z,16.65
2022-12-08T19:50:57.276Z,15.38
2022-12-08T19:55:14.607Z,15.48
2022-12-08T19:59:30.849Z,15.63
2022-12-08T20:03:47.051Z,15.30
2022-12-08T20:08:03.327Z,15.68
2022-12-08T20:12:19.430Z,14.95
2022-12-08T20:16:35.878Z,15.48
2022-12-08T20:20:52.354Z,14.87
2022-12-08T20:25:12.801Z,15.00
2022-12-08T20:29:29.444Z,13.95
2022-12-08T20:33:45.725Z,14.82
2022-12-08T20:38:01.931Z,13.90
2022-12-08T20:42:19.273Z,14.45
2022-12-08T20:46:35.579Z,14.43
2022-12-08T20:50:52.686Z,13.65
2022-12-08T20:55:09.614Z,14.38
2022-12-08T20:59:27.032Z,13.57
2022-12-08T21:03:44.877Z,13.45
2022-12-08T21:08:01.192Z,13.62
2022-12-08T21:12:17.669Z,13.27
2022-12-08T21:16:33.974Z,13.38
2022-12-08T21:20:51.236Z,13.30
2022-12-08T21:25:08.519Z,11.57
2022-12-08T21:29:24.849Z,13.57
2022-12-08T21:33:41.230Z,13.18
2022-12-08T21:37:57.559Z,13.35
2022-12-08T21:42:34.284Z,13.52
2022-12-08T21:46:51.032Z,12.35
2022-12-08T21:51:07.352Z,12.88
2022-12-08T21:55:23.938Z,12.20
2022-12-08T21:59:40.283Z,13.35
2022-12-08T22:03:56.693Z,13.68
2022-12-08T22:08:12.932Z,12.60
2022-12-08T22:12:29.485Z,13.70
2022-12-08T22:16:45.960Z,14.07
2022-12-08T22:21:07.608Z,13.80
2022-12-08T22:25:23.823Z,12.95
2022-12-08T22:29:39.990Z,14.75
2022-12-08T22:33:56.248Z,13.65
2022-12-08T22:38:12.387Z,15.07
2022-12-08T22:42:28.935Z,14.13
2022-12-08T22:46:45.359Z,14.57
2022-12-08T22:51:02.262Z,14.15
2022-12-08T22:55:18.699Z,14.25
2022-12-08T22:59:34.854Z,13.82
2022-12-08T23:03:51.163Z,14.65
2022-12-08T23:08:08.666Z,15.45
2022-12-08T23:12:24.947Z,14.30
2022-12-08T23:16:41.262Z,15.85
2022-12-08T23:21:02.613Z,14.85
2022-12-08T23:25:19.159Z,13.90
2022-12-08T23:29:35.328Z,15.43
2022-12-08T23:33:51.773Z,15.02
2022-12-08T23:38:08.024Z,15.52
2022-12-08T23:42:24.244Z,15.27
2022-12-08T23:46:40.517Z,15.35
2022-12-08T23:50:57.526Z,16.17
2022-12-08T23:55:13.605Z,16.27
2022-12-08T23:59:31.009Z,15.35
